Time;durP1;ratioP1;P1;durP2;ratioP2;P2;SDS_P1;SDS_P2;PMS_P1;PMS_P2;Temp;Humidity;BMP_temperature;BMP_pressure;BME280_temperature;BME280_humidity;BME280_pressure;Samples;Min_cycle;Max_cycle;Signal;HPM_P1;HPM_P2
2020/12/03 00:00:25;;;;;;;;;11.00;10.00;;;;;;;;5003196;28;11562;-75
2020/12/03 00:02:52;;;;;;;;;14.75;10.75;;;;;;;;5000798;28;11537;-75
2020/12/03 00:05:19;;;;;;;;;12.75;12.75;;;;;;;;5001859;28;11557;-75
2020/12/03 00:07:46;;;;;;;;;12.00;11.00;;;;;;;;5003983;28;11569;-74
2020/12/03 00:10:14;;;;;;;;;11.25;11.25;;;;;;;;5004798;28;12377;-75
2020/12/03 00:12:40;;;;;;;;;13.00;13.00;;;;;;;;5003389;28;11546;-75
2020/12/03 00:15:07;;;;;;;;;12.50;12.50;;;;;;;;5003581;28;11531;-74
2020/12/03 00:17:34;;;;;;;;;12.75;10.25;;;;;;;;5003111;28;11547;-76
2020/12/03 00:20:15;;;;;;;;;13.25;13.25;;;;;;;;5003780;28;11532;-76
2020/12/03 00:22:43;;;;;;;;;15.75;13.00;;;;;;;;5001849;28;11549;-77
2020/12/03 00:25:10;;;;;;;;;14.00;10.75;;;;;;;;5004909;28;11548;-76
2020/12/03 00:27:38;;;;;;;;;14.00;14.00;;;;;;;;4997561;28;11530;-79
2020/12/03 00:30:06;;;;;;;;;21.00;19.50;;;;;;;;4999388;28;11550;-76
2020/12/03 00:32:33;;;;;;;;;11.25;11.25;;;;;;;;5002975;28;12331;-78
2020/12/03 00:35:01;;;;;;;;;13.75;13.75;;;;;;;;5003445;28;11588;-76
2020/12/03 00:37:27;;;;;;;;;10.50;10.50;;;;;;;;5005158;28;12563;-75
2020/12/03 00:39:55;;;;;;;;;14.00;14.00;;;;;;;;5002736;28;11566;-75
2020/12/03 00:42:22;;;;;;;;;12.00;12.00;;;;;;;;5003285;28;11532;-75
2020/12/03 00:44:50;;;;;;;;;18.00;13.50;;;;;;;;5003090;28;11668;-75
2020/12/03 00:47:16;;;;;;;;;12.00;12.00;;;;;;;;5003175;28;11654;-76
2020/12/03 00:49:43;;;;;;;;;11.50;11.50;;;;;;;;5003456;28;11596;-75
2020/12/03 00:52:10;;;;;;;;;12.25;10.00;;;;;;;;5002118;28;11554;-75
2020/12/03 00:54:37;;;;;;;;;12.25;10.00;;;;;;;;5003877;28;11627;-75
2020/12/03 00:57:07;;;;;;;;;11.25;10.00;;;;;;;;5001005;28;11538;-75
2020/12/03 00:59:34;;;;;;;;;12.50;12.50;;;;;;;;5004805;28;11553;-74
2020/12/03 01:02:02;;;;;;;;;9.00;9.00;;;;;;;;5002956;28;11525;-75
2020/12/03 01:04:29;;;;;;;;;11.00;11.00;;;;;;;;5002806;28;12454;-75
2020/12/03 01:06:56;;;;;;;;;8.00;8.00;;;;;;;;5004411;28;11560;-75
2020/12/03 01:09:23;;;;;;;;;13.75;12.75;;;;;;;;5003183;28;12340;-74
2020/12/03 01:11:50;;;;;;;;;13.50;13.00;;;;;;;;4999673;28;11548;-76
2020/12/03 01:14:16;;;;;;;;;6.25;6.25;;;;;;;;5000771;28;11679;-75
2020/12/03 01:16:43;;;;;;;;;8.00;8.00;;;;;;;;5003300;28;11536;-75
2020/12/03 01:19:11;;;;;;;;;14.50;9.75;;;;;;;;4999269;28;11508;-74
2020/12/03 01:21:38;;;;;;;;;9.50;9.50;;;;;;;;5001704;28;11538;-75
2020/12/03 01:24:05;;;;;;;;;17.00;13.00;;;;;;;;5002057;28;11523;-74
2020/12/03 01:26:32;;;;;;;;;18.00;10.25;;;;;;;;5003062;28;11573;-74
2020/12/03 01:28:59;;;;;;;;;10.75;9.25;;;;;;;;5003018;28;11501;-76
2020/12/03 01:31:31;;;;;;;;;8.75;8.75;;;;;;;;5001028;28;11582;-75
2020/12/03 01:33:59;;;;;;;;;9.00;9.00;;;;;;;;5006514;28;11535;-75
2020/12/03 01:36:27;;;;;;;;;7.25;5.50;;;;;;;;4996093;28;11519;-75
2020/12/03 01:38:54;;;;;;;;;10.00;8.00;;;;;;;;5001994;28;12268;-76
2020/12/03 01:41:20;;;;;;;;;10.00;8.50;;;;;;;;5001488;28;11600;-76
2020/12/03 01:43:47;;;;;;;;;10.75;9.00;;;;;;;;5002114;28;11568;-76
2020/12/03 01:46:15;;;;;;;;;10.00;7.25;;;;;;;;5002914;28;11614;-75
2020/12/03 01:48:45;;;;;;;;;10.00;10.00;;;;;;;;5001233;28;11588;-74
2020/12/03 01:51:18;;;;;;;;;6.00;6.00;;;;;;;;4999717;28;11492;-75
2020/12/03 01:53:46;;;;;;;;;13.00;9.00;;;;;;;;5001420;28;11532;-76
2020/12/03 01:56:50;;;;;;;;;8.00;8.00;;;;;;;;5001932;28;11602;-75
2020/12/03 01:59:17;;;;;;;;;10.00;8.75;;;;;;;;4984643;28;11480;-74
2020/12/03 02:01:45;;;;;;;;;10.50;7.75;;;;;;;;5000794;28;11459;-75
2020/12/03 02:04:12;;;;;;;;;10.25;6.25;;;;;;;;5002809;28;11535;-74
2020/12/03 02:06:41;;;;;;;;;10.00;5.75;;;;;;;;5000677;28;11483;-73
2020/12/03 02:09:11;;;;;;;;;11.75;9.50;;;;;;;;5003140;28;11510;-75
2020/12/03 02:11:38;;;;;;;;;9.50;8.25;;;;;;;;5000874;28;11640;-75
2020/12/03 02:14:08;;;;;;;;;9.25;9.25;;;;;;;;5002314;28;11545;-74
2020/12/03 02:16:37;;;;;;;;;7.25;6.75;;;;;;;;5002115;28;11587;-75
2020/12/03 02:19:14;;;;;;;;;7.25;7.25;;;;;;;;5002245;28;12227;-75
2020/12/03 02:21:43;;;;;;;;;6.50;5.25;;;;;;;;5002263;28;11497;-75
2020/12/03 02:24:10;;;;;;;;;5.00;5.00;;;;;;;;5000368;28;11511;-77
2020/12/03 02:26:37;;;;;;;;;5.50;5.50;;;;;;;;5002818;28;11535;-77
2020/12/03 02:29:03;;;;;;;;;5.00;5.00;;;;;;;;5001514;28;11497;-76
2020/12/03 02:31:31;;;;;;;;;5.50;5.50;;;;;;;;5001008;28;11448;-75
2020/12/03 02:33:57;;;;;;;;;6.00;5.25;;;;;;;;5000210;28;11470;-76
2020/12/03 02:36:24;;;;;;;;;10.25;6.50;;;;;;;;5001845;28;12089;-76
2020/12/03 02:38:52;;;;;;;;;16.00;12.00;;;;;;;;5002565;28;11567;-76
2020/12/03 02:41:19;;;;;;;;;5.50;5.50;;;;;;;;4998613;28;11528;-75
2020/12/03 02:43:46;;;;;;;;;5.75;4.25;;;;;;;;5002338;28;11571;-75
2020/12/03 02:46:13;;;;;;;;;4.25;4.25;;;;;;;;5001012;28;11569;-76
2020/12/03 02:48:40;;;;;;;;;5.75;4.50;;;;;;;;5002072;28;11610;-75
2020/12/03 02:51:07;;;;;;;;;6.00;3.25;;;;;;;;5000267;28;11598;-76
2020/12/03 02:53:34;;;;;;;;;4.75;3.25;;;;;;;;5005832;28;11488;-75
2020/12/03 02:56:02;;;;;;;;;3.00;3.00;;;;;;;;5004476;28;11669;-75
2020/12/03 02:58:29;;;;;;;;;3.50;3.50;;;;;;;;5005183;28;11476;-75
2020/12/03 03:00:55;;;;;;;;;5.75;3.25;;;;;;;;5005602;28;11468;-75
2020/12/03 03:03:22;;;;;;;;;4.00;4.00;;;;;;;;5004201;28;11471;-75
2020/12/03 03:05:50;;;;;;;;;6.25;3.25;;;;;;;;5005859;28;11470;-75
2020/12/03 03:08:17;;;;;;;;;6.00;3.50;;;;;;;;5003289;28;11510;-76
2020/12/03 03:10:44;;;;;;;;;6.00;5.50;;;;;;;;5005530;28;11522;-76
2020/12/03 03:13:12;;;;;;;;;10.25;7.00;;;;;;;;5003646;28;12264;-76
2020/12/03 03:15:39;;;;;;;;;8.75;8.75;;;;;;;;5004239;28;11632;-75
2020/12/03 03:18:05;;;;;;;;;8.75;6.00;;;;;;;;5005971;28;11469;-75
2020/12/03 03:20:32;;;;;;;;;10.25;9.00;;;;;;;;5004317;28;11522;-75
2020/12/03 03:22:59;;;;;;;;;5.75;5.75;;;;;;;;5001020;28;11543;-76
2020/12/03 03:25:25;;;;;;;;;8.25;8.00;;;;;;;;5004617;28;12807;-75
2020/12/03 03:27:52;;;;;;;;;10.75;10.75;;;;;;;;5005644;28;11525;-75
2020/12/03 03:30:20;;;;;;;;;10.00;10.00;;;;;;;;5003547;28;11571;-75
2020/12/03 03:32:47;;;;;;;;;9.50;9.50;;;;;;;;5004800;28;11591;-75
2020/12/03 03:35:17;;;;;;;;;12.75;12.75;;;;;;;;5006687;28;11533;-75
2020/12/03 03:37:44;;;;;;;;;11.00;10.00;;;;;;;;5008326;28;11548;-75
2020/12/03 03:40:11;;;;;;;;;12.00;9.25;;;;;;;;5006582;28;11511;-75
2020/12/03 03:42:38;;;;;;;;;12.75;12.75;;;;;;;;5004167;28;11525;-75
2020/12/03 03:45:06;;;;;;;;;16.00;13.50;;;;;;;;5004696;28;11676;-75
2020/12/03 03:47:33;;;;;;;;;9.75;9.00;;;;;;;;5002629;28;11607;-75
2020/12/03 03:50:00;;;;;;;;;12.00;12.00;;;;;;;;5004314;28;11557;-75
2020/12/03 03:52:27;;;;;;;;;13.00;13.00;;;;;;;;5003639;28;11538;-74
2020/12/03 03:54:54;;;;;;;;;14.00;14.00;;;;;;;;5004073;28;11542;-74
2020/12/03 03:57:21;;;;;;;;;11.50;11.50;;;;;;;;5004931;28;11596;-74
2020/12/03 03:59:49;;;;;;;;;17.25;17.25;;;;;;;;5003766;28;11788;-75
2020/12/03 04:02:17;;;;;;;;;15.00;14.50;;;;;;;;5001668;28;11554;-74
2020/12/03 04:04:45;;;;;;;;;13.25;13.25;;;;;;;;5002836;28;12615;-77
2020/12/03 04:07:12;;;;;;;;;17.00;13.00;;;;;;;;5005571;28;11529;-77
2020/12/03 04:09:39;;;;;;;;;8.50;5.75;;;;;;;;5003718;28;11544;-75
2020/12/03 04:12:06;;;;;;;;;23.25;22.75;;;;;;;;5003748;28;11487;-75
2020/12/03 04:14:33;;;;;;;;;5.50;5.50;;;;;;;;5004884;28;11624;-75
2020/12/03 04:17:01;;;;;;;;;16.50;13.50;;;;;;;;5003429;28;11496;-75
2020/12/03 04:19:27;;;;;;;;;17.25;14.75;;;;;;;;5004407;28;11555;-74
2020/12/03 04:21:55;;;;;;;;;14.75;13.25;;;;;;;;5000195;28;11549;-79
2020/12/03 04:24:22;;;;;;;;;19.00;16.75;;;;;;;;5003299;28;11552;-75
2020/12/03 04:26:49;;;;;;;;;25.50;20.00;;;;;;;;5006329;28;12146;-75
2020/12/03 04:29:16;;;;;;;;;20.75;18.25;;;;;;;;5011323;28;11709;-76
2020/12/03 04:31:43;;;;;;;;;16.00;15.50;;;;;;;;5003521;28;11544;-77
2020/12/03 04:34:11;;;;;;;;;15.75;14.00;;;;;;;;5004518;28;11549;-77
2020/12/03 04:36:38;;;;;;;;;18.00;18.00;;;;;;;;5004228;28;11583;-74
2020/12/03 04:39:06;;;;;;;;;20.25;17.75;;;;;;;;5004194;28;11534;-74
2020/12/03 04:41:33;;;;;;;;;23.75;20.00;;;;;;;;5004330;28;11581;-75
2020/12/03 04:44:04;;;;;;;;;19.00;19.00;;;;;;;;5001964;28;11593;-75
2020/12/03 04:46:35;;;;;;;;;19.75;18.00;;;;;;;;5000359;28;11622;-74
2020/12/03 04:49:24;;;;;;;;;24.00;19.25;;;;;;;;5004006;28;11542;-74
2020/12/03 04:52:35;;;;;;;;;23.00;17.75;;;;;;;;5002302;28;11533;-75
2020/12/03 04:55:16;;;;;;;;;18.00;17.25;;;;;;;;5002707;28;11728;-74
2020/12/03 04:57:45;;;;;;;;;22.00;20.00;;;;;;;;5002588;28;12327;-74
2020/12/03 05:00:18;;;;;;;;;23.25;18.75;;;;;;;;5002070;28;11533;-75
2020/12/03 05:03:35;;;;;;;;;16.00;16.00;;;;;;;;5002582;28;11611;-76
2020/12/03 05:06:31;;;;;;;;;14.75;12.75;;;;;;;;5002006;28;11550;-75
2020/12/03 05:09:03;;;;;;;;;18.50;17.00;;;;;;;;5000483;28;11555;-75
2020/12/03 05:11:34;;;;;;;;;23.50;18.50;;;;;;;;5002071;28;12375;-75
2020/12/03 05:14:07;;;;;;;;;21.75;17.00;;;;;;;;4998999;28;11593;-75
2020/12/03 05:16:47;;;;;;;;;19.00;18.00;;;;;;;;5003120;28;11577;-75
2020/12/03 05:19:17;;;;;;;;;21.75;19.50;;;;;;;;5002182;28;11609;-76
2020/12/03 05:21:44;;;;;;;;;19.50;19.00;;;;;;;;4999606;28;11646;-75
2020/12/03 05:24:11;;;;;;;;;17.75;14.00;;;;;;;;5002554;28;11633;-75
2020/12/03 05:26:39;;;;;;;;;32.50;25.25;;;;;;;;5000686;28;11605;-75
2020/12/03 05:29:09;;;;;;;;;23.00;18.50;;;;;;;;5002679;28;11635;-77
2020/12/03 05:31:39;;;;;;;;;25.25;20.75;;;;;;;;4997711;28;11554;-76
2020/12/03 05:34:09;;;;;;;;;16.75;14.75;;;;;;;;5003563;28;11594;-76
2020/12/03 05:36:40;;;;;;;;;21.50;21.50;;;;;;;;5002357;28;11629;-75
2020/12/03 05:39:13;;;;;;;;;22.50;22.00;;;;;;;;5002555;28;11631;-75
2020/12/03 05:41:47;;;;;;;;;26.50;24.50;;;;;;;;5002099;28;11679;-75
2020/12/03 05:44:27;;;;;;;;;25.00;22.25;;;;;;;;5001816;28;11608;-75
2020/12/03 05:46:55;;;;;;;;;32.75;22.50;;;;;;;;5003276;28;11626;-75
2020/12/03 05:49:25;;;;;;;;;23.00;21.75;;;;;;;;5001327;28;11623;-75
2020/12/03 05:52:07;;;;;;;;;30.00;26.00;;;;;;;;5003299;28;11606;-75
2020/12/03 05:54:34;;;;;;;;;26.75;17.75;;;;;;;;5000808;28;11615;-75
2020/12/03 05:57:01;;;;;;;;;26.50;21.75;;;;;;;;5001362;28;11609;-75
2020/12/03 05:59:28;;;;;;;;;20.75;20.75;;;;;;;;5001509;28;11600;-75
2020/12/03 06:02:06;;;;;;;;;27.25;25.50;;;;;;;;5000533;28;11570;-74
2020/12/03 06:04:42;;;;;;;;;29.25;27.25;;;;;;;;4998981;28;11599;-75
2020/12/03 06:07:33;;;;;;;;;25.50;22.25;;;;;;;;5002244;28;11697;-74
2020/12/03 06:10:09;;;;;;;;;21.25;19.75;;;;;;;;5002308;28;11615;-74
2020/12/03 06:12:56;;;;;;;;;17.75;14.00;;;;;;;;4999076;28;11576;-75
2020/12/03 06:15:34;;;;;;;;;22.50;18.00;;;;;;;;4999196;28;11738;-76
2020/12/03 06:18:34;;;;;;;;;25.00;23.25;;;;;;;;5001305;28;11656;-75
2020/12/03 06:21:27;;;;;;;;;22.75;22.75;;;;;;;;5003157;28;11617;-74
2020/12/03 06:24:07;;;;;;;;;35.50;30.50;;;;;;;;4989911;28;11630;-74
2020/12/03 06:26:51;;;;;;;;;28.00;26.25;;;;;;;;5005651;28;11591;-74
2020/12/03 06:29:49;;;;;;;;;20.75;20.25;;;;;;;;5006123;28;11594;-75
2020/12/03 06:32:42;;;;;;;;;20.25;19.00;;;;;;;;4994686;28;11565;-75
2020/12/03 06:35:21;;;;;;;;;23.75;21.50;;;;;;;;4999661;28;11648;-76
2020/12/03 06:37:55;;;;;;;;;24.00;22.00;;;;;;;;5005985;28;11649;-76
2020/12/03 06:40:25;;;;;;;;;26.25;24.00;;;;;;;;5006405;28;11767;-76
2020/12/03 06:42:57;;;;;;;;;27.75;24.25;;;;;;;;5001312;28;11583;-75
2020/12/03 06:45:30;;;;;;;;;39.50;35.50;;;;;;;;5004615;28;12401;-75
2020/12/03 06:48:12;;;;;;;;;34.50;27.50;;;;;;;;5006102;28;11618;-76
2020/12/03 06:51:11;;;;;;;;;33.75;23.75;;;;;;;;5005117;28;11594;-76
2020/12/03 06:54:17;;;;;;;;;28.50;26.00;;;;;;;;5003158;28;12441;-76
2020/12/03 06:57:16;;;;;;;;;29.00;26.50;;;;;;;;5005858;28;11763;-78
2020/12/03 07:00:22;;;;;;;;;27.25;25.50;;;;;;;;5002476;28;12394;-75
2020/12/03 07:03:20;;;;;;;;;24.50;24.50;;;;;;;;4983848;28;11560;-76
2020/12/03 07:06:29;;;;;;;;;32.00;26.00;;;;;;;;5001339;28;11713;-76
2020/12/03 07:09:31;;;;;;;;;30.75;25.25;;;;;;;;5002430;28;11738;-78
2020/12/03 07:12:18;;;;;;;;;29.00;26.75;;;;;;;;5001164;28;11668;-71
2020/12/03 07:15:27;;;;;;;;;30.50;29.25;;;;;;;;5006312;28;12808;-74
2020/12/03 07:18:41;;;;;;;;;36.50;30.75;;;;;;;;4997485;28;11722;-70
2020/12/03 07:21:37;;;;;;;;;27.75;27.75;;;;;;;;5003669;28;12461;-72
2020/12/03 07:24:06;;;;;;;;;27.50;26.00;;;;;;;;5001782;28;11662;-71
2020/12/03 07:27:07;;;;;;;;;34.50;30.50;;;;;;;;5005406;28;11611;-72
2020/12/03 07:29:46;;;;;;;;;30.50;26.00;;;;;;;;4997583;28;11636;-72
2020/12/03 07:32:24;;;;;;;;;29.50;29.00;;;;;;;;5005393;28;12375;-72
2020/12/03 07:35:00;;;;;;;;;30.75;29.50;;;;;;;;5005361;28;11587;-72
2020/12/03 07:37:37;;;;;;;;;33.50;29.25;;;;;;;;5006034;28;11668;-72
2020/12/03 07:40:05;;;;;;;;;39.50;33.75;;;;;;;;5008361;28;11659;-73
2020/12/03 07:42:32;;;;;;;;;36.25;33.00;;;;;;;;4997223;28;11630;-70
2020/12/03 07:44:58;;;;;;;;;40.25;30.75;;;;;;;;5004505;28;11628;-71
2020/12/03 07:47:33;;;;;;;;;38.75;33.00;;;;;;;;5002352;28;11722;-73
2020/12/03 07:50:02;;;;;;;;;32.25;28.50;;;;;;;;5005099;28;11643;-71
2020/12/03 07:52:32;;;;;;;;;34.00;30.00;;;;;;;;5004505;28;11602;-72
2020/12/03 07:55:39;;;;;;;;;33.75;26.75;;;;;;;;5000740;28;11694;-71
2020/12/03 07:58:09;;;;;;;;;34.00;31.75;;;;;;;;5001651;28;11620;-72
2020/12/03 08:00:49;;;;;;;;;33.25;33.25;;;;;;;;5004395;28;11588;-72
2020/12/03 08:03:38;;;;;;;;;35.00;33.50;;;;;;;;5002605;28;11605;-71
2020/12/03 08:06:37;;;;;;;;;37.75;31.25;;;;;;;;5003640;28;11661;-72
2020/12/03 08:09:24;;;;;;;;;35.50;35.50;;;;;;;;4997059;28;11639;-71
2020/12/03 08:12:07;;;;;;;;;28.00;26.50;;;;;;;;5003172;28;11608;-72
2020/12/03 08:14:39;;;;;;;;;30.00;29.75;;;;;;;;5004810;28;11631;-74
2020/12/03 08:17:23;;;;;;;;;36.50;29.00;;;;;;;;5003668;28;11622;-71
2020/12/03 08:20:13;;;;;;;;;32.50;30.50;;;;;;;;5004865;28;12893;-70
2020/12/03 08:22:42;;;;;;;;;32.75;29.50;;;;;;;;5004095;28;11659;-71
2020/12/03 08:25:14;;;;;;;;;46.00;36.00;;;;;;;;5003193;28;11633;-71
2020/12/03 08:27:41;;;;;;;;;45.75;38.00;;;;;;;;5004136;28;11625;-74
2020/12/03 08:30:40;;;;;;;;;51.50;46.00;;;;;;;;5002717;28;11674;-72
2020/12/03 08:33:14;;;;;;;;;35.75;27.75;;;;;;;;4997947;28;11725;-71
2020/12/03 08:35:45;;;;;;;;;36.00;32.75;;;;;;;;5004485;28;11607;-71
2020/12/03 08:38:13;;;;;;;;;40.00;34.25;;;;;;;;5004124;28;11669;-71
2020/12/03 08:40:40;;;;;;;;;42.25;32.75;;;;;;;;5004048;28;11627;-71
2020/12/03 08:43:10;;;;;;;;;33.75;31.75;;;;;;;;5002807;28;11603;-71
2020/12/03 08:45:50;;;;;;;;;36.50;33.00;;;;;;;;5004792;28;11785;-71
2020/12/03 08:48:22;;;;;;;;;33.00;26.75;;;;;;;;4997615;28;11607;-71
2020/12/03 08:50:58;;;;;;;;;37.00;31.25;;;;;;;;4986121;28;11713;-71
2020/12/03 08:53:28;;;;;;;;;33.50;30.75;;;;;;;;5004202;28;11635;-71
2020/12/03 08:55:57;;;;;;;;;33.25;32.50;;;;;;;;5001249;28;11741;-70
2020/12/03 08:58:25;;;;;;;;;40.00;34.00;;;;;;;;5002773;28;11615;-70
2020/12/03 09:00:54;;;;;;;;;35.25;30.50;;;;;;;;5002695;28;11571;-70
2020/12/03 09:03:22;;;;;;;;;38.75;33.50;;;;;;;;5004275;28;11636;-74
2020/12/03 09:05:51;;;;;;;;;28.00;26.00;;;;;;;;5003200;28;11624;-71
2020/12/03 09:08:20;;;;;;;;;29.50;26.00;;;;;;;;5002564;28;12454;-71
2020/12/03 09:10:48;;;;;;;;;27.00;24.25;;;;;;;;5003959;28;12424;-72
2020/12/03 09:13:18;;;;;;;;;32.00;29.50;;;;;;;;5001371;28;11618;-71
2020/12/03 09:15:47;;;;;;;;;29.50;26.25;;;;;;;;5003686;28;11619;-72
2020/12/03 09:18:15;;;;;;;;;39.50;36.75;;;;;;;;4996287;28;11632;-72
2020/12/03 09:20:44;;;;;;;;;34.50;31.00;;;;;;;;5002839;28;11756;-74
2020/12/03 09:23:31;;;;;;;;;29.25;29.25;;;;;;;;5003033;28;11613;-71
2020/12/03 09:25:58;;;;;;;;;33.25;26.00;;;;;;;;4991346;28;11754;-71
2020/12/03 09:28:25;;;;;;;;;28.50;23.75;;;;;;;;5002050;28;11702;-72
2020/12/03 09:30:54;;;;;;;;;26.50;26.50;;;;;;;;5001604;28;11588;-72
2020/12/03 09:33:23;;;;;;;;;26.50;24.75;;;;;;;;5003162;28;11628;-71
2020/12/03 09:35:52;;;;;;;;;31.00;31.00;;;;;;;;5003116;28;11594;-70
2020/12/03 09:38:20;;;;;;;;;31.00;31.00;;;;;;;;5007866;28;11658;-72
2020/12/03 09:40:48;;;;;;;;;35.75;32.25;;;;;;;;5003609;28;11606;-71
2020/12/03 09:43:20;;;;;;;;;28.50;28.00;;;;;;;;5001468;28;11704;-72
2020/12/03 09:45:52;;;;;;;;;28.00;26.00;;;;;;;;5002111;28;11613;-71
2020/12/03 09:48:21;;;;;;;;;25.75;25.75;;;;;;;;5001789;28;11603;-71
2020/12/03 09:50:52;;;;;;;;;21.25;19.50;;;;;;;;5003380;28;11655;-72
2020/12/03 09:53:20;;;;;;;;;26.00;24.50;;;;;;;;5002247;28;11609;-71
2020/12/03 09:55:48;;;;;;;;;27.50;26.25;;;;;;;;5003052;28;11712;-71
2020/12/03 09:58:19;;;;;;;;;25.75;23.00;;;;;;;;5002974;28;11606;-73
2020/12/03 10:00:47;;;;;;;;;18.75;18.75;;;;;;;;5000557;28;11565;-71
2020/12/03 10:04:10;;;;;;;;;21.75;21.75;;;;;;;;5002884;28;12463;-70
2020/12/03 10:06:40;;;;;;;;;32.50;32.50;;;;;;;;4940894;28;11735;-70
2020/12/03 10:09:22;;;;;;;;;23.00;20.75;;;;;;;;4941969;28;11667;-71
2020/12/03 10:12:34;;;;;;;;;25.75;21.75;;;;;;;;4989146;28;11625;-69
2020/12/03 10:15:30;;;;;;;;;25.50;22.50;;;;;;;;4940526;29;12518;-74
2020/12/03 10:18:09;;;;;;;;;26.25;23.00;;;;;;;;4939393;29;11825;-72
2020/12/03 10:20:37;;;;;;;;;23.50;21.75;;;;;;;;4990484;28;11606;-73
2020/12/03 10:23:38;;;;;;;;;25.50;22.75;;;;;;;;4997874;28;11622;-72
2020/12/03 10:26:16;;;;;;;;;27.00;23.00;;;;;;;;5001477;28;11619;-73
2020/12/03 10:28:53;;;;;;;;;32.25;26.00;;;;;;;;5000159;28;11559;-70
2020/12/03 10:31:21;;;;;;;;;28.25;24.25;;;;;;;;4996379;28;11514;-71
2020/12/03 10:33:49;;;;;;;;;28.75;24.00;;;;;;;;5002994;28;11653;-69
2020/12/03 10:36:28;;;;;;;;;27.50;26.25;;;;;;;;5001327;28;11558;-69
2020/12/03 10:38:57;;;;;;;;;27.00;25.25;;;;;;;;5005755;28;11591;-70
2020/12/03 10:41:32;;;;;;;;;29.25;22.00;;;;;;;;4999657;28;11692;-70
2020/12/03 10:44:04;;;;;;;;;23.75;19.75;;;;;;;;5000994;28;11733;-70
2020/12/03 10:46:33;;;;;;;;;24.50;22.25;;;;;;;;4996972;28;11619;-72
2020/12/03 10:49:00;;;;;;;;;27.25;27.25;;;;;;;;5000855;28;11543;-70
2020/12/03 10:51:28;;;;;;;;;22.75;19.50;;;;;;;;5002476;28;12415;-70
2020/12/03 10:53:56;;;;;;;;;19.25;19.25;;;;;;;;5000246;28;11537;-73
2020/12/03 10:56:27;;;;;;;;;18.25;17.25;;;;;;;;5001301;28;12314;-72
2020/12/03 10:59:40;;;;;;;;;29.00;24.75;;;;;;;;5001668;28;11567;-71
2020/12/03 11:02:19;;;;;;;;;31.00;23.00;;;;;;;;4999534;28;11632;-70
2020/12/03 11:04:46;;;;;;;;;20.25;17.00;;;;;;;;5002970;28;11585;-69
2020/12/03 11:07:13;;;;;;;;;33.75;28.75;;;;;;;;5001561;28;11521;-70
2020/12/03 11:09:42;;;;;;;;;22.00;22.00;;;;;;;;4996483;28;11668;-73
2020/12/03 11:12:11;;;;;;;;;25.50;23.50;;;;;;;;5005709;28;11533;-71
2020/12/03 11:14:39;;;;;;;;;24.25;24.25;;;;;;;;5003639;28;11660;-70
2020/12/03 11:17:13;;;;;;;;;23.00;21.25;;;;;;;;5005519;28;11522;-71
2020/12/03 11:19:41;;;;;;;;;29.50;26.75;;;;;;;;5002867;28;11541;-71
2020/12/03 11:22:21;;;;;;;;;22.25;20.75;;;;;;;;5004893;28;11540;-70
2020/12/03 11:41:56;;;;;;;;;18.50;17.00;;;;;;;;5003129;28;12286;-72
2020/12/03 11:44:58;;;;;;;;;20.50;15.75;;;;;;;;5001739;28;11568;-69
2020/12/03 11:50:16;;;;;;;;;12.50;10.50;;;;;;;;5005052;28;12355;-71
2020/12/03 11:52:43;;;;;;;;;20.50;20.25;;;;;;;;5005289;28;11581;-72
2020/12/03 11:55:20;;;;;;;;;9.75;9.75;;;;;;;;5003719;28;11539;-73
2020/12/03 11:57:48;;;;;;;;;11.50;11.50;;;;;;;;5004175;28;12259;-72
2020/12/03 12:00:20;;;;;;;;;14.25;14.25;;;;;;;;5002965;28;11721;-71
2020/12/03 12:02:49;;;;;;;;;13.00;13.00;;;;;;;;5001073;28;11524;-71
2020/12/03 12:05:25;;;;;;;;;18.00;18.00;;;;;;;;5004363;28;11643;-71
2020/12/03 12:08:10;;;;;;;;;13.00;13.00;;;;;;;;5003736;28;11569;-72
2020/12/03 12:10:43;;;;;;;;;17.75;13.75;;;;;;;;5003500;28;11689;-72
2020/12/03 12:13:15;;;;;;;;;16.50;14.00;;;;;;;;5001411;28;11594;-71
2020/12/03 12:15:42;;;;;;;;;12.25;12.00;;;;;;;;5002936;28;11622;-70
2020/12/03 12:18:10;;;;;;;;;16.00;14.75;;;;;;;;5003726;28;11578;-70
2020/12/03 12:20:37;;;;;;;;;15.25;15.25;;;;;;;;5002006;28;11570;-75
2020/12/03 12:29:51;;;;;;;;;11.75;10.50;;;;;;;;5002499;28;11491;-70
2020/12/03 12:32:18;;;;;;;;;18.00;16.75;;;;;;;;4996236;28;11486;-73
2020/12/03 12:34:45;;;;;;;;;16.50;13.25;;;;;;;;5003512;28;11674;-73
2020/12/03 12:37:12;;;;;;;;;13.50;11.00;;;;;;;;5003030;28;11583;-72
2020/12/03 12:39:39;;;;;;;;;17.75;16.50;;;;;;;;5006235;28;11563;-70
2020/12/03 12:42:08;;;;;;;;;13.50;9.50;;;;;;;;5003656;28;11570;-73
2020/12/03 12:44:35;;;;;;;;;15.25;13.00;;;;;;;;5004556;28;12508;-70
2020/12/03 12:47:04;;;;;;;;;9.00;9.00;;;;;;;;5003163;28;11540;-76
2020/12/03 12:49:32;;;;;;;;;14.00;13.25;;;;;;;;5003235;28;11635;-75
2020/12/03 12:51:59;;;;;;;;;13.25;12.75;;;;;;;;5002793;28;11519;-74
2020/12/03 12:54:26;;;;;;;;;17.25;15.00;;;;;;;;5001533;28;11513;-72
2020/12/03 12:56:55;;;;;;;;;10.50;10.50;;;;;;;;4999612;28;11526;-73
2020/12/03 12:59:22;;;;;;;;;12.50;8.50;;;;;;;;5007222;28;11627;-72
2020/12/03 13:01:50;;;;;;;;;11.50;11.50;;;;;;;;5002990;28;12966;-73
2020/12/03 13:04:20;;;;;;;;;10.50;8.50;;;;;;;;5001667;28;11542;-72
2020/12/03 13:06:47;;;;;;;;;9.75;9.75;;;;;;;;5003990;28;11639;-72
2020/12/03 13:09:15;;;;;;;;;12.75;10.50;;;;;;;;5002694;28;11513;-70
2020/12/03 13:11:43;;;;;;;;;10.25;10.25;;;;;;;;5000324;28;11549;-76
2020/12/03 13:14:10;;;;;;;;;6.75;5.50;;;;;;;;5002282;28;11497;-71
2020/12/03 13:16:37;;;;;;;;;8.00;6.25;;;;;;;;5001123;28;11505;-72
2020/12/03 13:19:05;;;;;;;;;10.75;9.75;;;;;;;;5004535;28;11489;-71
2020/12/03 13:21:33;;;;;;;;;5.00;5.00;;;;;;;;5001979;28;11520;-70
2020/12/03 13:24:00;;;;;;;;;6.00;6.00;;;;;;;;5004453;28;11524;-70
2020/12/03 13:26:27;;;;;;;;;11.00;8.25;;;;;;;;5001420;28;12287;-72
2020/12/03 13:28:54;;;;;;;;;6.00;6.00;;;;;;;;5002420;28;11555;-74
2020/12/03 13:31:21;;;;;;;;;7.00;6.75;;;;;;;;5001640;28;11445;-71
2020/12/03 13:33:50;;;;;;;;;6.00;6.00;;;;;;;;5001200;28;11553;-74
2020/12/03 13:36:20;;;;;;;;;7.75;5.75;;;;;;;;5002090;28;11523;-71
2020/12/03 13:38:48;;;;;;;;;9.00;7.75;;;;;;;;5000543;28;11503;-70
2020/12/03 13:41:16;;;;;;;;;6.00;6.00;;;;;;;;5002440;28;12211;-71
2020/12/03 13:43:43;;;;;;;;;6.00;6.00;;;;;;;;5001112;28;11504;-73
2020/12/03 13:46:10;;;;;;;;;5.00;5.00;;;;;;;;5000693;28;12263;-75
2020/12/03 13:48:37;;;;;;;;;9.75;6.75;;;;;;;;5000722;28;11557;-73
2020/12/03 13:51:05;;;;;;;;;8.25;5.75;;;;;;;;5000779;28;11564;-71
2020/12/03 13:53:32;;;;;;;;;6.00;6.00;;;;;;;;5002543;28;11497;-78
2020/12/03 13:56:00;;;;;;;;;9.25;6.25;;;;;;;;5000074;28;11482;-75
2020/12/03 13:58:27;;;;;;;;;4.50;4.50;;;;;;;;5000412;28;11496;-70
2020/12/03 14:00:54;;;;;;;;;6.75;6.75;;;;;;;;5000673;28;11432;-70
2020/12/03 14:03:21;;;;;;;;;6.75;6.75;;;;;;;;5001368;28;11612;-71
2020/12/03 14:05:48;;;;;;;;;6.00;6.00;;;;;;;;5002087;28;11506;-70
2020/12/03 14:08:15;;;;;;;;;8.75;6.00;;;;;;;;4999493;28;11561;-73
2020/12/03 14:10:41;;;;;;;;;9.00;9.00;;;;;;;;5002084;28;11489;-70
2020/12/03 14:13:09;;;;;;;;;7.25;7.25;;;;;;;;5001355;28;11485;-72
2020/12/03 14:15:36;;;;;;;;;6.25;5.25;;;;;;;;5002561;28;11621;-70
2020/12/03 14:18:03;;;;;;;;;3.25;3.25;;;;;;;;5000327;28;11658;-70
2020/12/03 14:20:30;;;;;;;;;7.00;7.00;;;;;;;;5001346;28;11535;-76
2020/12/03 14:22:57;;;;;;;;;6.75;6.75;;;;;;;;5001482;28;11520;-79
2020/12/03 14:25:24;;;;;;;;;5.00;5.00;;;;;;;;5000657;28;11507;-74
2020/12/03 14:27:51;;;;;;;;;6.00;4.00;;;;;;;;4999868;28;12514;-72
2020/12/03 14:30:20;;;;;;;;;2.00;2.00;;;;;;;;4999821;28;11547;-70
2020/12/03 14:32:48;;;;;;;;;5.00;5.00;;;;;;;;5002367;28;12409;-73
2020/12/03 14:35:16;;;;;;;;;5.00;5.00;;;;;;;;5002807;28;11520;-74
2020/12/03 14:37:44;;;;;;;;;3.25;3.25;;;;;;;;5004393;28;11613;-74
2020/12/03 14:40:13;;;;;;;;;7.00;5.50;;;;;;;;4999089;28;11472;-74
2020/12/03 14:42:40;;;;;;;;;5.25;5.25;;;;;;;;5003688;28;11620;-75
2020/12/03 14:45:09;;;;;;;;;8.75;8.75;;;;;;;;5003336;28;12285;-72
2020/12/03 14:47:38;;;;;;;;;7.50;5.25;;;;;;;;5006543;28;11508;-75
2020/12/03 14:50:08;;;;;;;;;9.00;6.25;;;;;;;;5007483;28;11506;-73
2020/12/03 14:52:36;;;;;;;;;5.50;5.50;;;;;;;;5005965;28;11518;-73
2020/12/03 14:55:03;;;;;;;;;8.00;7.50;;;;;;;;5006529;28;12409;-70
2020/12/03 14:57:34;;;;;;;;;4.50;4.00;;;;;;;;5005283;28;11506;-70
2020/12/03 15:00:01;;;;;;;;;5.50;5.50;;;;;;;;4995945;28;11491;-70
2020/12/03 15:02:30;;;;;;;;;8.00;8.00;;;;;;;;5006586;28;11535;-70
2020/12/03 15:04:58;;;;;;;;;8.00;8.00;;;;;;;;5006354;28;11530;-72
2020/12/03 15:07:25;;;;;;;;;7.50;5.25;;;;;;;;5007174;28;11491;-70
2020/12/03 15:09:54;;;;;;;;;10.75;10.75;;;;;;;;5006134;28;11512;-70
2020/12/03 15:12:21;;;;;;;;;5.00;5.00;;;;;;;;5006782;28;11546;-77
2020/12/03 15:14:48;;;;;;;;;5.75;5.75;;;;;;;;5005564;28;11545;-74
2020/12/03 15:17:17;;;;;;;;;6.00;6.00;;;;;;;;5006831;28;11500;-69
2020/12/03 15:19:44;;;;;;;;;5.50;5.50;;;;;;;;5006524;28;11508;-72